Time;durP1;ratioP1;P1;durP2;ratioP2;P2;SDS_P1;SDS_P2;PMS_P1;PMS_P2;Temp;Humidity;BMP_temperature;BMP_pressure;BME280_temperature;BME280_humidity;BME280_pressure;Samples;Min_cycle;Max_cycle;Signal;HPM_P1;HPM_P2
2023/11/23 00:02:45;;;;;;;8.50;7.60;;;;;;;5.50;100.00;101634.81;6096650;28;20240;-72
2023/11/23 00:06:07;;;;;;;13.10;10.13;;;;;;;5.53;100.00;101641.78;6099679;28;20240;-71
2023/11/23 00:09:28;;;;;;;10.83;8.43;;;;;;;5.57;100.00;101643.34;6093600;28;20244;-70
2023/11/23 00:12:49;;;;;;;9.83;8.53;;;;;;;5.61;100.00;101640.41;6101060;28;20256;-70
2023/11/23 00:16:10;;;;;;;11.70;10.40;;;;;;;5.68;100.00;101646.28;6109338;28;20235;-71
2023/11/23 00:19:32;;;;;;;10.27;8.27;;;;;;;5.68;100.00;101615.06;6108070;28;20240;-71
2023/11/23 00:22:53;;;;;;;10.97;9.83;;;;;;;5.66;100.00;101610.75;6108094;28;20239;-71
2023/11/23 00:26:14;;;;;;;12.23;8.57;;;;;;;5.76;100.00;101595.88;6106287;28;20232;-71
2023/11/23 00:29:39;;;;;;;10.97;9.50;;;;;;;5.79;100.00;101600.22;6093231;28;20236;-71
2023/11/23 00:33:00;;;;;;;10.77;9.40;;;;;;;5.83;100.00;101589.25;6110330;28;20255;-70
2023/11/23 00:36:22;;;;;;;10.73;8.80;;;;;;;5.86;100.00;101573.03;6095481;28;20602;-72
2023/11/23 00:39:44;;;;;;;13.57;11.63;;;;;;;5.82;100.00;101574.13;6098407;28;20247;-70
2023/11/23 00:43:05;;;;;;;10.67;9.57;;;;;;;5.91;100.00;101587.03;6102109;28;20236;-72
2023/11/23 00:46:27;;;;;;;12.43;10.33;;;;;;;6.13;100.00;101581.28;6115795;28;20303;-71
2023/11/23 00:49:53;;;;;;;16.77;10.80;;;;;;;5.98;100.00;101555.41;6121716;28;20262;-71
2023/11/23 00:53:16;;;;;;;15.97;13.37;;;;;;;6.00;100.00;101559.75;6104450;28;20274;-71
2023/11/23 00:56:37;;;;;;;17.43;10.17;;;;;;;6.13;100.00;101559.88;6109868;28;20235;-72
2023/11/23 00:59:59;;;;;;;12.93;10.83;;;;;;;6.20;100.00;101571.91;6112534;28;20311;-71
2023/11/23 01:03:19;;;;;;;10.90;9.73;;;;;;;6.26;100.00;101558.16;6100022;28;20240;-71
2023/11/23 01:06:41;;;;;;;11.57;8.90;;;;;;;6.37;100.00;101575.31;6111384;28;20673;-71
2023/11/23 01:10:04;;;;;;;10.67;8.43;;;;;;;6.43;100.00;101552.66;6112358;28;20314;-72
2023/11/23 01:13:25;;;;;;;13.30;11.07;;;;;;;6.49;100.00;101560.31;6113037;28;20263;-71
2023/11/23 01:16:46;;;;;;;14.47;11.07;;;;;;;6.60;100.00;101552.50;6105634;28;20502;-72
2023/11/23 01:20:08;;;;;;;14.20;11.10;;;;;;;6.65;100.00;101554.91;6118650;28;20645;-71
2023/11/23 01:23:30;;;;;;;15.07;11.53;;;;;;;6.71;100.00;101549.16;6114485;28;20602;-71
2023/11/23 01:26:53;;;;;;;14.67;11.43;;;;;;;6.70;100.00;101558.13;6111614;28;20224;-70
2023/11/23 01:30:14;;;;;;;12.30;8.80;;;;;;;6.73;100.00;101557.97;6126425;28;20228;-70
2023/11/23 01:33:35;;;;;;;13.97;11.23;;;;;;;6.72;100.00;101538.34;6108032;28;20236;-71
2023/11/23 01:36:57;;;;;;;19.57;13.53;;;;;;;6.82;100.00;101544.00;6111782;28;20323;-71
2023/11/23 01:40:18;;;;;;;17.93;14.27;;;;;;;6.82;100.00;101555.56;6121627;28;20232;-71
2023/11/23 01:43:40;;;;;;;16.40;14.70;;;;;;;6.78;100.00;101543.31;6103687;28;20240;-71
2023/11/23 01:47:03;;;;;;;16.60;13.63;;;;;;;6.82;100.00;101538.63;6107545;28;20236;-70
2023/11/23 01:50:24;;;;;;;14.80;12.87;;;;;;;6.81;100.00;101539.59;6114420;28;20228;-71
2023/11/23 01:53:44;;;;;;;17.23;15.17;;;;;;;6.83;100.00;101537.66;6110509;28;20838;-71
2023/11/23 01:57:08;;;;;;;14.00;12.57;;;;;;;6.85;100.00;101549.16;6106663;28;20517;-71
2023/11/23 02:00:31;;;;;;;17.07;14.90;;;;;;;6.87;100.00;101525.78;6104828;28;21287;-71
2023/11/23 02:03:54;;;;;;;12.77;11.47;;;;;;;6.93;100.00;101526.28;6108905;28;20501;-71
2023/11/23 02:07:16;;;;;;;13.13;11.73;;;;;;;6.94;100.00;101529.81;6104732;28;20508;-71
2023/11/23 02:10:37;;;;;;;20.80;12.63;;;;;;;6.99;100.00;101512.47;6102968;28;20656;-72
2023/11/23 02:14:07;;;;;;;15.73;10.97;;;;;;;7.01;100.00;101509.69;6090004;28;20235;-70
2023/11/23 02:17:35;;;;;;;16.20;14.03;;;;;;;7.05;100.00;101504.03;6101791;28;20239;-72
2023/11/23 02:20:56;;;;;;;15.50;13.90;;;;;;;7.09;100.00;101494.00;6093159;28;20231;-71
2023/11/23 02:24:19;;;;;;;15.00;12.37;;;;;;;7.13;100.00;101491.00;6090490;28;20235;-72
2023/11/23 02:27:40;;;;;;;16.60;12.77;;;;;;;7.21;100.00;101488.72;6102908;28;20239;-71
2023/11/23 02:31:01;;;;;;;13.13;11.60;;;;;;;7.22;100.00;101479.69;6104385;28;20255;-71
2023/11/23 02:34:22;;;;;;;17.87;14.23;;;;;;;7.33;100.00;101472.75;6106275;28;20641;-72
2023/11/23 02:37:43;;;;;;;12.93;10.07;;;;;;;7.37;100.00;101476.94;6106884;28;20566;-72
2023/11/23 02:41:06;;;;;;;11.70;10.50;;;;;;;7.39;100.00;101466.97;6103175;28;20810;-72
2023/11/23 02:44:27;;;;;;;14.97;12.97;;;;;;;7.45;100.00;101469.28;6110169;28;20516;-72
2023/11/23 02:47:49;;;;;;;16.47;14.83;;;;;;;7.47;100.00;101438.69;6108079;28;20255;-71
2023/11/23 02:51:10;;;;;;;15.27;13.23;;;;;;;7.51;100.00;101447.41;6108940;28;20220;-71
2023/11/23 02:54:31;;;;;;;16.03;13.47;;;;;;;7.59;100.00;101445.06;6117247;28;20235;-71
2023/11/23 02:57:53;;;;;;;14.77;12.23;;;;;;;7.58;100.00;101441.53;6111523;28;20235;-71
2023/11/23 03:01:14;;;;;;;15.17;13.50;;;;;;;7.62;100.00;101435.00;6111435;28;20239;-71
2023/11/23 03:04:35;;;;;;;16.07;13.57;;;;;;;7.64;100.00;101435.75;6111229;28;20268;-71
2023/11/23 03:07:56;;;;;;;17.93;14.97;;;;;;;7.63;100.00;101433.19;6107169;28;20510;-71
2023/11/23 03:11:20;;;;;;;17.53;13.63;;;;;;;8.01;100.00;101416.16;6113247;28;20236;-72
2023/11/23 03:14:43;;;;;;;16.20;13.67;;;;;;;7.85;100.00;101445.03;6112515;28;20240;-71
2023/11/23 03:18:05;;;;;;;16.73;15.10;;;;;;;8.15;6.56;101409.81;6111453;28;20240;-71
2023/11/23 03:21:26;;;;;;;15.77;12.73;;;;;;;7.98;0.00;101413.69;6108185;28;20280;-71
2023/11/23 03:24:49;;;;;;;15.83;13.37;;;;;;;8.07;0.00;101402.28;6121350;28;20239;-71
2023/11/23 03:28:11;;;;;;;16.40;14.67;;;;;;;7.87;0.00;101404.66;6116052;28;20259;-71
2023/11/23 03:31:32;;;;;;;15.90;13.73;;;;;;;7.80;0.00;101417.63;6110085;28;20673;-72
2023/11/23 03:34:55;;;;;;;15.90;14.23;;;;;;;7.78;0.00;101414.19;6113907;28;20251;-71
2023/11/23 03:38:16;;;;;;;14.30;12.90;;;;;;;7.86;0.00;101401.09;6113938;28;20233;-72
2023/11/23 03:41:37;;;;;;;19.40;14.37;;;;;;;7.85;0.00;101399.41;6108331;28;20240;-71
2023/11/23 03:44:58;;;;;;;18.07;14.27;;;;;;;7.92;0.00;101383.72;6111676;28;20255;-71
2023/11/23 03:48:20;;;;;;;15.77;14.17;;;;;;;7.97;0.00;101389.63;6109126;28;20232;-71
2023/11/23 03:51:41;;;;;;;16.77;12.83;;;;;;;7.99;0.00;101388.53;6110612;28;20232;-71
2023/11/23 03:55:02;;;;;;;14.53;12.40;;;;;;;8.02;0.00;101384.78;6110061;28;20243;-72
2023/11/23 03:58:23;;;;;;;12.63;10.97;;;;;;;8.11;0.00;101383.28;6110962;28;20316;-71
2023/11/23 04:01:45;;;;;;;13.93;12.43;;;;;;;8.15;0.00;101374.91;6109636;28;20233;-72
2023/11/23 04:05:08;;;;;;;11.83;10.13;;;;;;;8.17;0.00;101362.25;6112005;28;20610;-72
2023/11/23 04:08:29;;;;;;;13.40;12.07;;;;;;;8.21;0.00;101371.78;6108211;28;20243;-73
2023/11/23 04:11:50;;;;;;;14.97;12.80;;;;;;;8.23;0.00;101353.75;6104165;28;20612;-71
2023/11/23 04:15:13;;;;;;;17.37;13.20;;;;;;;8.22;0.00;101346.63;6099078;28;20694;-73
2023/11/23 04:18:35;;;;;;;12.80;11.50;;;;;;;8.25;0.00;101354.53;6112155;28;20228;-73
2023/11/23 04:22:09;;;;;;;14.83;12.03;;;;;;;8.28;0.00;101343.53;6101667;28;20240;-73
2023/11/23 04:25:34;;;;;;;12.90;11.57;;;;;;;8.31;0.00;101337.09;6111193;28;20223;-72
2023/11/23 04:29:02;;;;;;;13.27;11.90;;;;;;;8.34;0.00;101315.41;6097869;28;20234;-73
2023/11/23 04:32:29;;;;;;;13.70;11.83;;;;;;;8.37;0.00;101331.28;6096633;28;20239;-71
2023/11/23 04:35:57;;;;;;;14.43;11.73;;;;;;;8.37;0.00;101328.59;6117866;28;20620;-73
2023/11/23 04:39:26;;;;;;;13.20;11.63;;;;;;;8.40;0.00;101342.69;6098183;28;20239;-72
2023/11/23 04:42:47;;;;;;;12.67;10.47;;;;;;;8.46;0.00;101331.50;6097207;28;20326;-72
2023/11/23 04:46:33;;;;;;;13.63;12.23;;;;;;;8.45;0.00;101321.69;6098342;28;20244;-72
2023/11/23 04:49:54;;;;;;;15.30;13.93;;;;;;;8.46;0.00;101326.13;6103930;28;20329;-72
2023/11/23 04:53:17;;;;;;;14.30;12.93;;;;;;;8.55;0.00;101335.34;6107888;28;20231;-72
2023/11/23 04:56:43;;;;;;;14.43;13.03;;;;;;;8.57;0.00;101328.03;6110980;28;20242;-71
2023/11/23 05:00:08;;;;;;;11.13;9.23;;;;;;;8.61;0.00;101330.38;6107458;28;20228;-71
2023/11/23 05:03:29;;;;;;;13.87;12.57;;;;;;;8.61;0.00;101306.19;6106497;28;20231;-72
2023/11/23 05:06:55;;;;;;;11.23;10.07;;;;;;;8.68;0.00;101301.19;6109236;28;20232;-72
2023/11/23 05:10:19;;;;;;;14.90;12.07;;;;;;;8.72;0.00;101290.09;6097320;28;20239;-72
2023/11/23 05:13:46;;;;;;;14.03;11.63;;;;;;;8.73;0.00;101294.53;6116334;28;20243;-72
2023/11/23 05:17:10;;;;;;;14.20;11.00;;;;;;;8.84;0.00;101286.50;6109721;28;20264;-72
2023/11/23 05:20:37;;;;;;;15.47;12.60;;;;;;;8.88;0.00;101289.84;6110619;28;20619;-72
2023/11/23 05:23:58;;;;;;;14.60;11.23;;;;;;;8.93;0.00;101286.81;6104282;28;20306;-71
2023/11/23 05:27:20;;;;;;;17.97;13.77;;;;;;;8.94;0.00;101291.19;6103563;28;20232;-72
2023/11/23 05:30:45;;;;;;;15.53;11.73;;;;;;;8.97;0.00;101286.44;6092963;28;20228;-71
2023/11/23 05:34:07;;;;;;;13.27;12.00;;;;;;;9.06;0.00;101285.75;6107381;28;20260;-71
2023/11/23 05:37:28;;;;;;;16.27;10.17;;;;;;;9.17;0.00;101293.88;6105871;28;20236;-71
2023/11/23 05:40:49;;;;;;;11.47;9.60;;;;;;;9.23;0.00;101282.63;6079667;28;20232;-71
2023/11/23 05:44:11;;;;;;;13.27;9.77;;;;;;;9.30;0.00;101283.03;6107607;28;20638;-71
2023/11/23 05:47:33;;;;;;;11.37;10.17;;;;;;;9.39;0.00;101284.97;6122351;28;20354;-71
2023/11/23 05:50:54;;;;;;;10.07;8.57;;;;;;;9.36;0.00;101275.34;6107637;28;20610;-72
2023/11/23 05:54:15;;;;;;;11.33;7.30;;;;;;;9.39;0.00;101252.69;6109753;28;20235;-71
2023/11/23 05:57:36;;;;;;;12.43;8.73;;;;;;;9.43;0.00;101252.34;6112180;28;20235;-72
2023/11/23 06:00:57;;;;;;;8.83;7.93;;;;;;;9.48;0.00;101249.31;6101327;28;20235;-71
2023/11/23 06:04:19;;;;;;;12.63;7.83;;;;;;;9.51;0.00;101254.47;6121378;28;20235;-71
2023/11/23 06:07:40;;;;;;;9.83;6.53;;;;;;;9.55;0.00;101242.47;6105845;28;20904;-72
2023/11/23 06:11:01;;;;;;;8.23;6.97;;;;;;;9.55;0.00;101240.63;6106579;28;20319;-71
2023/11/23 06:14:22;;;;;;;13.03;8.60;;;;;;;9.59;0.00;101252.88;6110113;28;20236;-71
2023/11/23 06:17:44;;;;;;;11.10;7.07;;;;;;;9.62;0.00;101241.00;6112354;28;20223;-71
2023/11/23 06:21:06;;;;;;;10.23;8.03;;;;;;;9.71;0.00;101240.28;6107316;28;20334;-69
2023/11/23 06:24:27;;;;;;;8.57;5.33;;;;;;;9.72;0.00;101233.06;6100374;28;20240;-71
2023/11/23 06:27:48;;;;;;;18.10;5.50;;;;;;;9.72;0.00;101230.38;6106867;28;20236;-71
2023/11/23 06:31:09;;;;;;;14.43;6.63;;;;;;;9.75;0.00;101208.56;6095973;28;20233;-71
2023/11/23 06:34:30;;;;;;;11.73;8.30;;;;;;;9.78;0.00;101216.41;6106511;28;20255;-71
2023/11/23 06:37:53;;;;;;;5.97;4.77;;;;;;;9.80;0.00;101222.53;6108504;28;20271;-70
2023/11/23 06:41:19;;;;;;;10.97;5.50;;;;;;;9.79;0.00;101200.13;6102661;28;20232;-69
2023/11/23 06:44:40;;;;;;;10.77;7.60;;;;;;;9.87;0.00;101200.38;6110645;28;20279;-70
2023/11/23 06:48:00;;;;;;;8.37;4.70;;;;;;;10.01;0.00;101194.72;6101946;28;20243;-70
2023/11/23 06:51:22;;;;;;;5.67;4.37;;;;;;;10.03;0.00;101175.75;6099039;28;20362;-70
2023/11/23 06:54:44;;;;;;;6.13;4.83;;;;;;;10.01;0.00;101177.72;6101040;28;21455;-70
2023/11/23 06:58:05;;;;;;;7.97;4.47;;;;;;;10.10;0.00;101174.25;6105889;28;20316;-70
2023/11/23 07:01:26;;;;;;;6.13;4.57;;;;;;;10.06;0.00;101167.41;6097762;28;20252;-70
2023/11/23 07:04:47;;;;;;;7.23;4.83;;;;;;;10.01;0.00;101165.09;6089004;28;20328;-72
2023/11/23 07:08:09;;;;;;;11.23;5.90;;;;;;;9.98;0.00;101157.28;6097348;28;20265;-72
2023/11/23 07:11:31;;;;;;;7.83;5.23;;;;;;;9.92;0.00;101155.09;6083164;28;20324;-75
2023/11/23 07:14:52;;;;;;;8.10;4.50;;;;;;;9.93;0.00;101147.88;6068783;28;20224;-70
2023/11/23 07:18:19;;;;;;;12.30;4.27;;;;;;;9.91;0.00;101139.06;6065786;28;20263;-71
2023/11/23 07:21:39;;;;;;;7.87;4.60;;;;;;;9.96;0.00;101134.13;6058787;28;20232;-73
2023/11/23 07:25:02;;;;;;;5.90;3.90;;;;;;;9.98;0.00;101146.50;6059001;28;20232;-69
2023/11/23 07:28:26;;;;;;;9.27;4.17;;;;;;;10.03;0.00;101122.75;6055099;28;20369;-72
2023/11/23 07:31:48;;;;;;;8.50;3.90;;;;;;;10.03;0.00;101124.59;6059604;28;20235;-71
2023/11/23 07:35:09;;;;;;;6.30;3.57;;;;;;;10.05;0.00;101119.91;6064582;28;20235;-71
2023/11/23 07:38:32;;;;;;;4.13;2.80;;;;;;;10.06;0.00;101129.69;6074760;28;20236;-71
2023/11/23 07:41:53;;;;;;;7.80;3.53;;;;;;;10.11;0.00;101124.81;6068937;28;20848;-70
2023/11/23 07:45:16;;;;;;;4.07;3.27;;;;;;;10.10;0.00;101125.75;6073460;28;20334;-71
2023/11/23 07:48:37;;;;;;;6.83;3.10;;;;;;;10.15;0.00;101119.06;6095153;28;20239;-70
2023/11/23 07:56:33;;;;;;;8.23;3.47;;;;;;;10.23;0.00;101099.56;6026362;23;20606;-69
2023/11/23 07:59:56;;;;;;;5.50;3.40;;;;;;;10.24;0.00;101101.28;6107330;28;20520;-72
2023/11/23 08:03:18;;;;;;;8.70;3.60;;;;;;;10.24;0.00;101103.97;6098815;28;20236;-72
2023/11/23 08:06:39;;;;;;;7.07;3.67;;;;;;;10.26;0.00;101097.44;6099362;28;20247;-71
2023/11/23 08:10:00;;;;;;;7.90;3.80;;;;;;;10.30;0.00;101100.75;6101691;28;20240;-73
2023/11/23 08:13:21;;;;;;;6.00;4.07;;;;;;;10.31;0.00;101102.47;6104461;28;20232;-73
2023/11/23 08:16:42;;;;;;;8.70;4.37;;;;;;;10.34;0.00;101086.03;6100174;28;20319;-70
2023/11/23 08:20:08;;;;;;;10.83;3.90;;;;;;;10.40;0.00;101085.53;6101240;28;20314;-70
2023/11/23 08:23:31;;;;;;;7.30;3.87;;;;;;;10.39;0.00;101086.50;6099088;28;20236;-70
2023/11/23 08:26:53;;;;;;;8.17;4.20;;;;;;;10.51;0.00;101077.38;6100522;28;20237;-70
2023/11/23 08:30:17;;;;;;;8.57;3.57;;;;;;;10.54;0.00;101081.63;6091770;28;20367;-70
2023/11/23 08:33:38;;;;;;;4.23;3.10;;;;;;;10.59;0.00;101069.50;6098259;28;20243;-70
2023/11/23 08:37:00;;;;;;;22.77;5.43;;;;;;;10.58;0.00;101059.69;6095241;28;20633;-70
2023/11/23 08:40:21;;;;;;;12.20;5.90;;;;;;;10.63;0.00;101070.09;6097234;28;20315;-70
2023/11/23 08:43:42;;;;;;;5.10;2.90;;;;;;;10.63;0.00;101083.56;6102922;28;20607;-69
2023/11/23 08:47:03;;;;;;;11.40;2.93;;;;;;;10.65;0.00;101066.28;6093006;28;23278;-71
2023/11/23 08:50:24;;;;;;;6.43;3.67;;;;;;;10.67;0.00;101083.16;6106477;28;20378;-69
2023/11/23 08:53:47;;;;;;;8.67;2.93;;;;;;;10.67;0.00;101042.72;6101555;28;20651;-73
2023/11/23 08:57:08;;;;;;;9.83;3.83;;;;;;;10.63;0.00;101049.38;6107478;28;20510;-71
2023/11/23 09:00:29;;;;;;;7.20;3.47;;;;;;;10.64;0.00;101053.75;6097993;28;20236;-72
2023/11/23 09:03:50;;;;;;;6.07;3.03;;;;;;;10.62;0.00;101041.44;6103359;28;20255;-70
2023/11/23 09:07:11;;;;;;;14.93;6.20;;;;;;;10.62;0.00;101050.34;6095046;28;20350;-69
2023/11/23 09:10:40;;;;;;;8.30;3.93;;;;;;;10.65;0.00;101038.44;6101661;28;20240;-72
2023/11/23 09:14:02;;;;;;;3.67;2.60;;;;;;;10.65;0.00;101033.91;6107198;28;20235;-70
2023/11/23 09:17:23;;;;;;;9.20;3.07;;;;;;;10.66;0.00;101030.22;6113600;28;20236;-70
2023/11/23 09:20:45;;;;;;;8.63;3.83;;;;;;;10.68;23.77;101016.63;6104806;28;20240;-70
2023/11/23 09:24:08;;;;;;;9.13;3.50;;;;;;;10.70;55.82;101007.41;6112549;28;20228;-70
2023/11/23 09:27:31;;;;;;;5.13;2.10;;;;;;;10.74;74.38;100997.22;6109546;28;20235;-70
2023/11/23 09:30:52;;;;;;;6.53;2.57;;;;;;;10.76;95.01;100989.84;6103034;28;20319;-71
2023/11/23 09:34:13;;;;;;;5.13;2.53;;;;;;;10.81;100.00;100999.22;6111448;28;20236;-70
2023/11/23 09:37:34;;;;;;;6.57;2.93;;;;;;;10.83;100.00;100991.84;6109680;28;20251;-70
2023/11/23 09:40:59;;;;;;;6.57;2.77;;;;;;;10.85;100.00;100978.22;6107648;28;20334;-70
2023/11/23 09:44:22;;;;;;;14.90;4.63;;;;;;;10.86;100.00;100958.38;6111184;28;20231;-70
2023/11/23 09:47:43;;;;;;;6.90;2.40;;;;;;;10.85;100.00;100957.53;6109252;28;20610;-70
2023/11/23 09:51:05;;;;;;;8.50;3.53;;;;;;;10.92;100.00;100961.38;6112080;28;20228;-71
2023/11/23 09:54:28;;;;;;;4.03;1.90;;;;;;;10.90;100.00;100944.50;6110799;28;20231;-70
2023/11/23 09:57:49;;;;;;;10.20;4.60;;;;;;;10.96;100.00;100935.84;6112026;28;20239;-70
2023/11/23 10:01:12;;;;;;;3.73;2.50;;;;;;;10.96;100.00;100943.06;6110077;28;20322;-71
2023/11/23 10:04:33;;;;;;;6.93;3.00;;;;;;;11.02;100.00;100939.81;6100199;28;20621;-71
2023/11/23 10:07:54;;;;;;;9.53;3.23;;;;;;;11.02;100.00;100940.69;6115313;28;20243;-70
2023/11/23 10:11:15;;;;;;;3.47;2.90;;;;;;;11.09;100.00;100933.75;6109440;28;20236;-69
2023/11/23 10:14:36;;;;;;;4.47;3.43;;;;;;;11.16;100.00;100917.84;6110716;28;20228;-69
2023/11/23 10:17:58;;;;;;;6.47;2.70;;;;;;;11.19;100.00;100909.50;6110692;28;20322;-70
2023/11/23 10:21:19;;;;;;;6.20;3.00;;;;;;;11.16;100.00;100917.84;6114924;28;20248;-70
2023/11/23 10:24:47;;;;;;;3.63;3.17;;;;;;;11.17;100.00;100912.34;6111766;28;20334;-69
2023/11/23 10:28:08;;;;;;;7.17;2.37;;;;;;;11.16;100.00;100894.44;6109721;28;20262;-70
2023/11/23 10:31:30;;;;;;;6.83;2.73;;;;;;;11.26;100.00;100900.69;6108144;28;20278;-69
2023/11/23 10:34:56;;;;;;;5.67;2.50;;;;;;;11.31;100.00;100883.22;6112521;28;20227;-70
2023/11/23 10:38:17;;;;;;;7.40;2.67;;;;;;;11.34;100.00;100882.94;6109555;28;20240;-69
2023/11/23 10:41:40;;;;;;;4.47;2.10;;;;;;;11.40;100.00;100882.38;6102131;28;20228;-69
2023/11/23 10:45:02;;;;;;;3.30;2.53;;;;;;;11.39;100.00;100873.44;6114434;28;20240;-71
2023/11/23 10:48:26;;;;;;;5.40;2.23;;;;;;;11.36;100.00;100853.97;6103148;28;20242;-70
2023/11/23 10:51:50;;;;;;;5.57;2.23;;;;;;;11.47;100.00;100864.63;6110789;28;20223;-71
2023/11/23 10:55:11;;;;;;;5.60;2.53;;;;;;;11.46;100.00;100855.69;6112699;28;20614;-71
2023/11/23 10:58:38;;;;;;;9.67;4.07;;;;;;;11.51;100.00;100833.66;6111635;28;20239;-71
2023/11/23 11:01:59;;;;;;;2.83;1.70;;;;;;;11.58;100.00;100840.16;6110527;28;20228;-69
2023/11/23 11:05:23;;;;;;;9.27;2.73;;;;;;;11.61;100.00;100883.09;6107259;28;20236;-70
2023/11/23 11:08:47;;;;;;;3.80;1.97;;;;;;;11.55;100.00;100851.28;6101907;28;20236;-71
2023/11/23 11:12:12;;;;;;;3.70;2.17;;;;;;;11.62;100.00;100828.13;6112733;28;20232;-72
2023/11/23 11:15:33;;;;;;;4.93;2.30;;;;;;;11.63;100.00;100840.59;6113917;28;20239;-70
2023/11/23 11:19:09;;;;;;;5.00;2.40;;;;;;;11.60;100.00;100833.63;6102557;28;20555;-71
2023/11/23 11:22:37;;;;;;;10.57;3.20;;;;;;;11.64;100.00;100835.06;6114526;28;20243;-74
2023/11/23 11:26:07;;;;;;;8.67;4.47;;;;;;;11.66;100.00;100807.94;6112133;28;20334;-72
2023/11/23 11:29:30;;;;;;;12.37;2.73;;;;;;;11.68;100.00;100822.16;6112097;28;20239;-73
2023/11/23 11:32:53;;;;;;;6.10;2.87;;;;;;;11.76;100.00;100827.69;6115706;28;20545;-72
2023/11/23 11:36:14;;;;;;;9.27;3.60;;;;;;;11.69;100.00;100800.41;6108950;28;20232;-70
2023/11/23 11:39:39;;;;;;;7.30;2.37;;;;;;;11.63;100.00;100790.16;6110133;28;20618;-70
2023/11/23 11:43:03;;;;;;;3.23;2.63;;;;;;;11.62;100.00;100801.94;6113032;28;20312;-71
2023/11/23 11:46:24;;;;;;;8.13;2.53;;;;;;;11.61;100.00;100805.66;6107277;28;20290;-72
2023/11/23 11:49:45;;;;;;;9.03;2.87;;;;;;;11.62;100.00;100793.00;6114066;28;20332;-70
2023/11/23 11:53:07;;;;;;;6.83;2.83;;;;;;;11.56;100.00;100790.88;6116866;28;20579;-72
2023/11/23 11:56:28;;;;;;;2.97;1.87;;;;;;;11.56;100.00;100771.97;6113753;28;20236;-70
2023/11/23 11:59:51;;;;;;;5.57;2.47;;;;;;;11.55;100.00;100771.13;6115663;28;20243;-71
2023/11/23 12:03:12;;;;;;;7.07;2.87;;;;;;;11.63;100.00;100762.31;6112964;28;20314;-69
2023/11/23 12:06:32;;;;;;;5.47;2.57;;;;;;;11.60;100.00;100755.34;6118297;28;20228;-71
2023/11/23 12:09:55;;;;;;;9.27;2.50;;;;;;;11.65;100.00;100736.84;6113636;28;20236;-71
2023/11/23 12:13:24;;;;;;;3.90;2.37;;;;;;;11.66;100.00;100756.63;6111231;28;20240;-71
2023/11/23 12:16:46;;;;;;;6.03;2.77;;;;;;;11.66;100.00;100745.81;6103262;28;20365;-70
2023/11/23 12:20:09;;;;;;;4.00;2.80;;;;;;;11.57;100.00;100731.34;6118407;28;20236;-68
2023/11/23 12:23:30;;;;;;;6.17;2.70;;;;;;;11.51;100.00;100731.94;6112323;28;20606;-69
2023/11/23 12:26:52;;;;;;;2.50;2.13;;;;;;;11.46;100.00;100715.31;6110024;28;20615;-69
2023/11/23 12:30:15;;;;;;;4.63;2.60;;;;;;;11.44;100.00;100722.69;6111207;28;20618;-69
2023/11/23 12:33:38;;;;;;;7.80;3.10;;;;;;;11.39;100.00;100702.56;6109954;28;20244;-71
2023/11/23 12:36:59;;;;;;;6.70;2.43;;;;;;;11.37;100.00;100715.34;6113390;28;20228;-70
2023/11/23 12:40:20;;;;;;;9.87;3.60;;;;;;;11.33;100.00;100689.66;6108936;28;20602;-68
2023/11/23 12:43:41;;;;;;;7.23;2.93;;;;;;;11.28;100.00;100693.59;6110699;28;20704;-68
2023/11/23 12:47:02;;;;;;;8.70;3.57;;;;;;;11.28;100.00;100690.91;6113452;28;20504;-70
2023/11/23 12:50:24;;;;;;;5.00;3.03;;;;;;;11.22;100.00;100683.38;6111189;28;20223;-70
2023/11/23 12:53:47;;;;;;;8.57;2.37;;;;;;;11.19;100.00;100670.22;6108204;28;20236;-70
2023/11/23 12:57:09;;;;;;;9.73;3.43;;;;;;;11.16;100.00;100673.19;6119904;28;20227;-69
2023/11/23 13:00:35;;;;;;;8.00;3.60;;;;;;;11.15;100.00;100665.25;6110917;28;20236;-68
2023/11/23 13:03:56;;;;;;;7.53;2.30;;;;;;;11.11;100.00;100648.50;6109397;28;20224;-70
2023/11/23 13:07:19;;;;;;;5.03;2.50;;;;;;;11.09;100.00;100644.25;6106860;28;20327;-72
2023/11/23 13:10:40;;;;;;;5.83;2.73;;;;;;;11.08;100.00;100632.59;6095529;28;20240;-74
2023/11/23 13:14:01;;;;;;;6.70;2.53;;;;;;;11.08;100.00;100629.03;6119120;28;20244;-73
2023/11/23 13:17:24;;;;;;;6.80;2.27;;;;;;;11.07;100.00;100627.34;6113096;28;20323;-70
2023/11/23 13:20:45;;;;;;;2.50;2.27;;;;;;;11.04;100.00;100615.00;6112570;28;20248;-71
2023/11/23 13:24:11;;;;;;;6.20;2.43;;;;;;;11.01;100.00;100609.88;6113979;28;20266;-71
2023/11/23 13:27:32;;;;;;;6.47;2.10;;;;;;;11.02;100.00;100611.59;6106856;28;20239;-71
2023/11/23 13:30:56;;;;;;;4.03;2.57;;;;;;;10.99;100.00;100590.28;6107467;28;20240;-71
2023/11/23 13:57:01;;;;;;;3.50;2.20;;;;;;;11.06;98.24;100550.09;6137320;23;22308;-75
2023/11/23 14:00:22;;;;;;;5.97;2.57;;;;;;;11.09;96.07;100533.63;6109911;28;20235;-69
2023/11/23 14:03:43;;;;;;;3.97;1.93;;;;;;;11.09;94.09;100539.03;6107282;28;20228;-74
2023/11/23 14:07:07;;;;;;;4.33;2.27;;;;;;;11.11;77.83;100527.09;6111916;28;20235;-73
2023/11/23 14:10:28;;;;;;;2.37;1.60;;;;;;;11.12;76.37;100514.44;6111314;28;20251;-73
2023/11/23 14:14:12;;;;;;;4.77;2.23;;;;;;;11.04;69.83;100512.50;6103635;28;20251;-75
2023/11/23 14:17:33;;;;;;;7.17;2.77;;;;;;;11.06;57.51;100531.22;6113740;28;20293;-73
2023/11/23 14:20:55;;;;;;;3.27;1.90;;;;;;;11.07;50.27;100519.44;6114603;28;20227;-72
2023/11/23 14:24:16;;;;;;;7.83;1.80;;;;;;;11.05;46.24;100518.75;6104883;28;20662;-75
2023/11/23 14:27:37;;;;;;;6.47;2.40;;;;;;;11.04;42.69;100500.84;6106629;28;20228;-73
2023/11/23 14:31:01;;;;;;;5.03;1.90;;;;;;;11.01;36.30;100493.06;6109638;28;20275;-73
2023/11/23 14:34:23;;;;;;;5.40;1.27;;;;;;;11.00;7.08;100481.44;6108980;28;20268;-73
2023/11/23 14:37:44;;;;;;;6.73;2.00;;;;;;;11.01;0.00;100475.00;6098152;28;20290;-73
2023/11/23 14:41:08;;;;;;;3.40;1.67;;;;;;;11.01;0.00;100466.09;6106649;28;20302;-73
2023/11/23 14:44:28;;;;;;;2.60;1.27;;;;;;;11.02;0.00;100473.19;6108713;28;20743;-74
2023/11/23 14:47:52;;;;;;;5.53;2.40;;;;;;;11.01;0.00;100453.44;6110366;28;20247;-74
2023/11/23 14:51:13;;;;;;;5.23;2.33;;;;;;;11.04;0.00;100469.34;6106829;28;20229;-74
2023/11/23 14:54:34;;;;;;;2.37;1.87;;;;;;;11.01;0.00;100442.66;6107205;28;20292;-73
2023/11/23 14:57:55;;;;;;;3.90;1.73;;;;;;;10.99;0.00;100443.81;6109865;28;20263;-71
2023/11/23 15:01:16;;;;;;;2.87;1.90;;;;;;;10.99;0.00;100428.47;6108972;28;21249;-73
2023/11/23 15:04:38;;;;;;;2.20;1.73;;;;;;;10.99;0.00;100438.44;6108175;28;20227;-74
2023/11/23 15:07:59;;;;;;;2.87;1.57;;;;;;;10.97;0.00;100421.53;6115752;28;21843;-74
2023/11/23 15:11:20;;;;;;;6.23;2.07;;;;;;;10.97;0.00;100408.88;6110223;28;20277;-73
2023/11/23 15:14:41;;;;;;;4.50;2.70;;;;;;;10.97;0.00;100411.59;6111244;28;20236;-73
2023/11/23 15:18:03;;;;;;;3.73;1.70;;;;;;;10.96;0.00;100454.91;6110387;28;20791;-74
2023/11/23 15:21:25;;;;;;;2.77;1.20;;;;;;;10.97;0.00;100399.97;6111330;28;20236;-74
2023/11/23 15:24:46;;;;;;;4.87;1.90;;;;;;;10.96;0.00;100404.50;6116869;28;20232;-73
2023/11/23 15:28:10;;;;;;;2.80;1.73;;;;;;;10.93;0.00;100382.41;6117867;28;20232;-73
2023/11/23 15:31:31;;;;;;;3.87;1.73;;;;;;;10.94;0.00;100387.63;6115457;28;20326;-73
2023/11/23 15:34:52;;;;;;;2.27;1.70;;;;;;;10.92;0.00;100388.78;6116029;28;20231;-74
2023/11/23 15:38:15;;;;;;;2.33;1.77;;;;;;;10.91;0.00;100387.91;6105776;28;20236;-74
2023/11/23 15:41:35;;;;;;;3.87;1.70;;;;;;;10.91;0.00;100377.13;6114017;28;20354;-74
2023/11/23 15:44:57;;;;;;;4.07;2.00;;;;;;;10.91;0.00;100377.13;6115165;28;20231;-74
2023/11/23 15:48:18;;;;;;;2.67;1.87;;;;;;;10.92;0.00;100378.84;6110798;28;20231;-74
2023/11/23 15:51:40;;;;;;;3.13;1.77;;;;;;;10.93;0.00;100366.22;6110003;28;20850;-74
2023/11/23 15:55:08;;;;;;;3.10;1.90;;;;;;;10.93;0.00;100356.25;6118020;28;20239;-72
2023/11/23 15:58:34;;;;;;;1.97;1.53;;;;;;;10.94;0.00;100354.41;6113027;28;20243;-73
2023/11/23 16:01:57;;;;;;;3.80;2.03;;;;;;;10.95;0.00;100340.75;6115534;28;20775;-74
2023/11/23 16:05:24;;;;;;;2.23;2.03;;;;;;;10.92;0.00;100342.94;6107315;28;20231;-71